sensor_id;sensor_type;location;lat;lon;timestamp;P1;durP1;ratioP1;P2;durP2;ratioP2
82387;SDS011;72027;47.420;9.310;2023-08-17T00:00:14;6.15;;;3.00;;
82387;SDS011;72027;47.420;9.310;2023-08-17T00:02:44;3.70;;;3.03;;
82387;SDS011;72027;47.420;9.310;2023-08-17T00:05:13;6.65;;;2.78;;
82387;SDS011;72027;47.420;9.310;2023-08-17T00:07:41;4.65;;;2.83;;
82387;SDS011;72027;47.420;9.310;2023-08-17T00:10:09;2.55;;;2.28;;
82387;SDS011;72027;47.420;9.310;2023-08-17T00:12:37;3.80;;;3.00;;
82387;SDS011;72027;47.420;9.310;2023-08-17T00:15:05;5.90;;;2.92;;
82387;SDS011;72027;47.420;9.310;2023-08-17T00:17:33;5.75;;;3.33;;
82387;SDS011;72027;47.420;9.310;2023-08-17T00:20:01;3.70;;;3.00;;
82387;SDS011;72027;47.420;9.310;2023-08-17T00:22:32;7.50;;;3.15;;
82387;SDS011;72027;47.420;9.310;2023-08-17T00:25:00;6.03;;;3.08;;
82387;SDS011;72027;47.420;9.310;2023-08-17T00:27:29;9.18;;;3.30;;
82387;SDS011;72027;47.420;9.310;2023-08-17T00:29:57;12.93;;;4.45;;
82387;SDS011;72027;47.420;9.310;2023-08-17T00:32:25;8.23;;;3.85;;
82387;SDS011;72027;47.420;9.310;2023-08-17T00:34:53;4.85;;;3.67;;
82387;SDS011;72027;47.420;9.310;2023-08-17T00:37:21;4.38;;;3.08;;
82387;SDS011;72027;47.420;9.310;2023-08-17T00:39:50;3.60;;;3.25;;
82387;SDS011;72027;47.420;9.310;2023-08-17T00:42:18;6.85;;;2.97;;
82387;SDS011;72027;47.420;9.310;2023-08-17T00:44:46;6.82;;;3.38;;
82387;SDS011;72027;47.420;9.310;2023-08-17T00:47:13;4.32;;;3.30;;
82387;SDS011;72027;47.420;9.310;2023-08-17T00:49:42;4.85;;;3.25;;
82387;SDS011;72027;47.420;9.310;2023-08-17T00:52:10;4.40;;;3.47;;
82387;SDS011;72027;47.420;9.310;2023-08-17T00:54:38;3.90;;;2.85;;
82387;SDS011;72027;47.420;9.310;2023-08-17T00:57:07;8.85;;;3.35;;
82387;SDS011;72027;47.420;9.310;2023-08-17T00:59:36;4.97;;;3.60;;
82387;SDS011;72027;47.420;9.310;2023-08-17T01:02:04;6.47;;;3.67;;
82387;SDS011;72027;47.420;9.310;2023-08-17T01:04:35;4.68;;;3.65;;
82387;SDS011;72027;47.420;9.310;2023-08-17T01:07:03;6.03;;;3.42;;
82387;SDS011;72027;47.420;9.310;2023-08-17T01:09:32;9.25;;;3.67;;
82387;SDS011;72027;47.420;9.310;2023-08-17T01:12:00;5.18;;;3.63;;
82387;SDS011;72027;47.420;9.310;2023-08-17T01:14:39;4.15;;;3.10;;
82387;SDS011;72027;47.420;9.310;2023-08-17T01:17:19;4.20;;;3.38;;
82387;SDS011;72027;47.420;9.310;2023-08-17T01:19:53;7.63;;;4.18;;
82387;SDS011;72027;47.420;9.310;2023-08-17T01:22:21;6.13;;;4.30;;
82387;SDS011;72027;47.420;9.310;2023-08-17T01:24:54;5.72;;;3.65;;
82387;SDS011;72027;47.420;9.310;2023-08-17T01:27:23;7.75;;;3.83;;
82387;SDS011;72027;47.420;9.310;2023-08-17T01:29:51;11.05;;;4.07;;
82387;SDS011;72027;47.420;9.310;2023-08-17T01:32:26;10.73;;;3.92;;
82387;SDS011;72027;47.420;9.310;2023-08-17T01:35:00;6.40;;;4.13;;
82387;SDS011;72027;47.420;9.310;2023-08-17T01:37:32;6.30;;;4.10;;
82387;SDS011;72027;47.420;9.310;2023-08-17T01:40:04;6.95;;;4.35;;
82387;SDS011;72027;47.420;9.310;2023-08-17T01:42:33;6.43;;;4.57;;
82387;SDS011;72027;47.420;9.310;2023-08-17T01:45:02;9.20;;;4.80;;
82387;SDS011;72027;47.420;9.310;2023-08-17T01:47:30;9.10;;;4.97;;
82387;SDS011;72027;47.420;9.310;2023-08-17T01:49:58;8.77;;;4.35;;
82387;SDS011;72027;47.420;9.310;2023-08-17T01:52:26;7.72;;;3.65;;
82387;SDS011;72027;47.420;9.310;2023-08-17T01:54:55;9.10;;;5.78;;
82387;SDS011;72027;47.420;9.310;2023-08-17T01:57:24;5.22;;;3.90;;
82387;SDS011;72027;47.420;9.310;2023-08-17T01:59:52;3.85;;;3.28;;
82387;SDS011;72027;47.420;9.310;2023-08-17T02:02:20;4.65;;;3.42;;
82387;SDS011;72027;47.420;9.310;2023-08-17T02:04:48;8.43;;;3.75;;
82387;SDS011;72027;47.420;9.310;2023-08-17T02:07:16;5.80;;;3.90;;
82387;SDS011;72027;47.420;9.310;2023-08-17T02:09:48;3.55;;;3.22;;
82387;SDS011;72027;47.420;9.310;2023-08-17T02:12:15;3.28;;;2.70;;
82387;SDS011;72027;47.420;9.310;2023-08-17T02:14:45;6.07;;;3.53;;
82387;SDS011;72027;47.420;9.310;2023-08-17T02:17:12;5.57;;;4.07;;
82387;SDS011;72027;47.420;9.310;2023-08-17T02:19:42;6.60;;;3.92;;
82387;SDS011;72027;47.420;9.310;2023-08-17T02:22:10;4.95;;;3.58;;
82387;SDS011;72027;47.420;9.310;2023-08-17T02:24:38;5.32;;;3.25;;
82387;SDS011;72027;47.420;9.310;2023-08-17T02:27:06;4.00;;;3.55;;
82387;SDS011;72027;47.420;9.310;2023-08-17T02:29:36;6.70;;;3.88;;
82387;SDS011;72027;47.420;9.310;2023-08-17T02:32:05;16.73;;;4.03;;
82387;SDS011;72027;47.420;9.310;2023-08-17T02:34:33;5.03;;;3.22;;
82387;SDS011;72027;47.420;9.310;2023-08-17T02:37:01;3.78;;;3.13;;
82387;SDS011;72027;47.420;9.310;2023-08-17T02:39:28;4.47;;;3.22;;
82387;SDS011;72027;47.420;9.310;2023-08-17T02:41:56;4.57;;;3.45;;
82387;SDS011;72027;47.420;9.310;2023-08-17T02:44:24;4.40;;;3.15;;
82387;SDS011;72027;47.420;9.310;2023-08-17T02:46:54;5.82;;;3.50;;
82387;SDS011;72027;47.420;9.310;2023-08-17T02:49:23;7.40;;;3.33;;
82387;SDS011;72027;47.420;9.310;2023-08-17T02:51:51;8.80;;;4.80;;
82387;SDS011;72027;47.420;9.310;2023-08-17T02:54:19;11.70;;;4.57;;
82387;SDS011;72027;47.420;9.310;2023-08-17T02:56:46;7.80;;;3.65;;
82387;SDS011;72027;47.420;9.310;2023-08-17T02:59:14;9.50;;;4.05;;
82387;SDS011;72027;47.420;9.310;2023-08-17T03:01:43;9.25;;;4.35;;
82387;SDS011;72027;47.420;9.310;2023-08-17T03:04:12;5.25;;;4.25;;
82387;SDS011;72027;47.420;9.310;2023-08-17T03:06:41;8.02;;;4.65;;
82387;SDS011;72027;47.420;9.310;2023-08-17T03:09:09;8.48;;;4.00;;
82387;SDS011;72027;47.420;9.310;2023-08-17T03:11:37;7.53;;;3.92;;
82387;SDS011;72027;47.420;9.310;2023-08-17T03:14:05;7.63;;;3.92;;
82387;SDS011;72027;47.420;9.310;2023-08-17T03:16:33;9.13;;;5.07;;
82387;SDS011;72027;47.420;9.310;2023-08-17T03:19:00;8.48;;;4.95;;
82387;SDS011;72027;47.420;9.310;2023-08-17T03:21:28;7.47;;;4.72;;
82387;SDS011;72027;47.420;9.310;2023-08-17T03:23:58;8.40;;;4.32;;
82387;SDS011;72027;47.420;9.310;2023-08-17T03:26:25;7.20;;;4.50;;
82387;SDS011;72027;47.420;9.310;2023-08-17T03:28:53;5.90;;;4.88;;
82387;SDS011;72027;47.420;9.310;2023-08-17T03:31:21;7.28;;;3.75;;
82387;SDS011;72027;47.420;9.310;2023-08-17T03:33:49;6.38;;;3.47;;
82387;SDS011;72027;47.420;9.310;2023-08-17T03:36:18;4.05;;;3.53;;
82387;SDS011;72027;47.420;9.310;2023-08-17T03:38:46;4.70;;;3.28;;
82387;SDS011;72027;47.420;9.310;2023-08-17T03:41:15;4.28;;;3.17;;
82387;SDS011;72027;47.420;9.310;2023-08-17T03:43:43;6.47;;;3.85;;
82387;SDS011;72027;47.420;9.310;2023-08-17T03:46:11;3.72;;;3.33;;
82387;SDS011;72027;47.420;9.310;2023-08-17T03:48:39;10.00;;;4.05;;
82387;SDS011;72027;47.420;9.310;2023-08-17T03:51:07;7.53;;;3.58;;
82387;SDS011;72027;47.420;9.310;2023-08-17T03:53:34;7.32;;;4.53;;
82387;SDS011;72027;47.420;9.310;2023-08-17T03:56:02;4.78;;;3.50;;
82387;SDS011;72027;47.420;9.310;2023-08-17T03:58:32;5.70;;;3.47;;
82387;SDS011;72027;47.420;9.310;2023-08-17T04:01:01;5.53;;;3.53;;
82387;SDS011;72027;47.420;9.310;2023-08-17T04:03:30;3.58;;;3.03;;
82387;SDS011;72027;47.420;9.310;2023-08-17T04:05:58;12.48;;;4.60;;
82387;SDS011;72027;47.420;9.310;2023-08-17T04:08:32;8.73;;;3.67;;
82387;SDS011;72027;47.420;9.310;2023-08-17T04:11:00;6.30;;;3.78;;
82387;SDS011;72027;47.420;9.310;2023-08-17T04:13:28;5.07;;;4.18;;
82387;SDS011;72027;47.420;9.310;2023-08-17T04:15:57;6.85;;;4.00;;
82387;SDS011;72027;47.420;9.310;2023-08-17T04:18:25;4.28;;;3.47;;
82387;SDS011;72027;47.420;9.310;2023-08-17T04:20:53;4.20;;;3.10;;
82387;SDS011;72027;47.420;9.310;2023-08-17T04:23:21;3.97;;;2.75;;
82387;SDS011;72027;47.420;9.310;2023-08-17T04:25:50;6.57;;;4.25;;
82387;SDS011;72027;47.420;9.310;2023-08-17T04:28:18;6.35;;;3.83;;
82387;SDS011;72027;47.420;9.310;2023-08-17T04:30:46;4.68;;;3.55;;
82387;SDS011;72027;47.420;9.310;2023-08-17T04:33:15;6.53;;;3.92;;
82387;SDS011;72027;47.420;9.310;2023-08-17T04:35:45;8.85;;;4.15;;
82387;SDS011;72027;47.420;9.310;2023-08-17T04:38:14;4.80;;;3.15;;
82387;SDS011;72027;47.420;9.310;2023-08-17T04:40:43;6.88;;;3.30;;
82387;SDS011;72027;47.420;9.310;2023-08-17T04:43:12;7.20;;;4.13;;
82387;SDS011;72027;47.420;9.310;2023-08-17T04:45:40;6.72;;;4.28;;
82387;SDS011;72027;47.420;9.310;2023-08-17T04:48:08;5.20;;;3.80;;
82387;SDS011;72027;47.420;9.310;2023-08-17T04:50:37;7.10;;;3.95;;
82387;SDS011;72027;47.420;9.310;2023-08-17T04:53:05;7.80;;;3.35;;
82387;SDS011;72027;47.420;9.310;2023-08-17T04:55:33;9.43;;;3.58;;
82387;SDS011;72027;47.420;9.310;2023-08-17T04:58:01;5.07;;;3.40;;
82387;SDS011;72027;47.420;9.310;2023-08-17T05:00:29;5.03;;;3.25;;
82387;SDS011;72027;47.420;9.310;2023-08-17T05:02:58;6.50;;;3.50;;
82387;SDS011;72027;47.420;9.310;2023-08-17T05:05:31;4.85;;;3.47;;
82387;SDS011;72027;47.420;9.310;2023-08-17T05:08:05;8.10;;;3.25;;
82387;SDS011;72027;47.420;9.310;2023-08-17T05:10:34;5.18;;;3.55;;
82387;SDS011;72027;47.420;9.310;2023-08-17T05:13:02;8.38;;;3.97;;
82387;SDS011;72027;47.420;9.310;2023-08-17T05:15:31;9.82;;;3.45;;
82387;SDS011;72027;47.420;9.310;2023-08-17T05:18:01;4.60;;;3.88;;
82387;SDS011;72027;47.420;9.310;2023-08-17T05:20:29;6.80;;;4.30;;
82387;SDS011;72027;47.420;9.310;2023-08-17T05:22:58;5.03;;;3.65;;
82387;SDS011;72027;47.420;9.310;2023-08-17T05:25:27;5.47;;;3.60;;
82387;SDS011;72027;47.420;9.310;2023-08-17T05:27:55;6.85;;;3.42;;
82387;SDS011;72027;47.420;9.310;2023-08-17T05:30:23;4.10;;;3.60;;
82387;SDS011;72027;47.420;9.310;2023-08-17T05:32:52;6.63;;;3.55;;
82387;SDS011;72027;47.420;9.310;2023-08-17T05:35:20;6.38;;;3.90;;
82387;SDS011;72027;47.420;9.310;2023-08-17T05:37:48;8.32;;;3.28;;
82387;SDS011;72027;47.420;9.310;2023-08-17T05:40:16;10.38;;;3.45;;
82387;SDS011;72027;47.420;9.310;2023-08-17T05:42:46;4.53;;;3.10;;
82387;SDS011;72027;47.420;9.310;2023-08-17T05:45:13;4.75;;;3.25;;
82387;SDS011;72027;47.420;9.310;2023-08-17T05:47:41;5.13;;;3.35;;
82387;SDS011;72027;47.420;9.310;2023-08-17T05:50:09;6.00;;;3.47;;
82387;SDS011;72027;47.420;9.310;2023-08-17T05:52:37;6.55;;;3.58;;
82387;SDS011;72027;47.420;9.310;2023-08-17T05:55:07;7.07;;;3.38;;
82387;SDS011;72027;47.420;9.310;2023-08-17T05:57:43;7.22;;;3.25;;
82387;SDS011;72027;47.420;9.310;2023-08-17T06:00:13;4.80;;;3.53;;
82387;SDS011;72027;47.420;9.310;2023-08-17T06:02:41;3.90;;;3.13;;
82387;SDS011;72027;47.420;9.310;2023-08-17T06:05:09;6.20;;;4.03;;
82387;SDS011;72027;47.420;9.310;2023-08-17T06:07:37;6.03;;;3.63;;
82387;SDS011;72027;47.420;9.310;2023-08-17T06:10:05;6.28;;;3.65;;
82387;SDS011;72027;47.420;9.310;2023-08-17T06:12:34;5.00;;;3.42;;
82387;SDS011;72027;47.420;9.310;2023-08-17T06:15:02;8.18;;;4.25;;
82387;SDS011;72027;47.420;9.310;2023-08-17T06:17:31;4.30;;;3.45;;
82387;SDS011;72027;47.420;9.310;2023-08-17T06:19:59;7.13;;;3.30;;
82387;SDS011;72027;47.420;9.310;2023-08-17T06:22:27;6.68;;;3.45;;
82387;SDS011;72027;47.420;9.310;2023-08-17T06:24:54;3.83;;;3.03;;
82387;SDS011;72027;47.420;9.310;2023-08-17T06:27:22;5.85;;;3.55;;
82387;SDS011;72027;47.420;9.310;2023-08-17T06:29:50;3.65;;;3.05;;
82387;SDS011;72027;47.420;9.310;2023-08-17T06:32:18;3.17;;;2.90;;
82387;SDS011;72027;47.420;9.310;2023-08-17T06:34:47;6.78;;;3.83;;
82387;SDS011;72027;47.420;9.310;2023-08-17T06:37:15;6.85;;;3.45;;
82387;SDS011;72027;47.420;9.310;2023-08-17T06:39:43;4.43;;;3.08;;
82387;SDS011;72027;47.420;9.310;2023-08-17T06:42:10;5.78;;;3.53;;
82387;SDS011;72027;47.420;9.310;2023-08-17T06:44:38;6.40;;;3.50;;
82387;SDS011;72027;47.420;9.310;2023-08-17T06:47:06;4.38;;;2.92;;
82387;SDS011;72027;47.420;9.310;2023-08-17T06:49:34;4.40;;;3.33;;
82387;SDS011;72027;47.420;9.310;2023-08-17T06:52:04;8.10;;;3.95;;
82387;SDS011;72027;47.420;9.310;2023-08-17T06:54:32;4.95;;;3.45;;
82387;SDS011;72027;47.420;9.310;2023-08-17T06:57:00;7.80;;;3.78;;
82387;SDS011;72027;47.420;9.310;2023-08-17T06:59:28;6.25;;;3.85;;
82387;SDS011;72027;47.420;9.310;2023-08-17T07:01:56;4.80;;;3.33;;
82387;SDS011;72027;47.420;9.310;2023-08-17T07:04:24;4.03;;;3.40;;
82387;SDS011;72027;47.420;9.310;2023-08-17T07:06:52;6.28;;;3.08;;
82387;SDS011;72027;47.420;9.310;2023-08-17T07:09:21;4.72;;;3.30;;
82387;SDS011;72027;47.420;9.310;2023-08-17T07:11:49;4.07;;;3.53;;
82387;SDS011;72027;47.420;9.310;2023-08-17T07:14:17;4.70;;;3.60;;
82387;SDS011;72027;47.420;9.310;2023-08-17T07:16:47;7.22;;;3.80;;
82387;SDS011;72027;47.420;9.310;2023-08-17T07:19:15;3.92;;;3.25;;
82387;SDS011;72027;47.420;9.310;2023-08-17T07:21:43;3.95;;;3.35;;
82387;SDS011;72027;47.420;9.310;2023-08-17T07:24:11;7.53;;;3.78;;
82387;SDS011;72027;47.420;9.310;2023-08-17T07:26:41;8.52;;;3.67;;
82387;SDS011;72027;47.420;9.310;2023-08-17T07:29:09;5.60;;;3.47;;
82387;SDS011;72027;47.420;9.310;2023-08-17T07:31:38;5.50;;;3.97;;
82387;SDS011;72027;47.420;9.310;2023-08-17T07:34:09;9.43;;;3.90;;
82387;SDS011;72027;47.420;9.310;2023-08-17T07:36:37;7.70;;;3.85;;
82387;SDS011;72027;47.420;9.310;2023-08-17T07:39:04;7.25;;;4.22;;
82387;SDS011;72027;47.420;9.310;2023-08-17T07:41:32;5.38;;;4.05;;
82387;SDS011;72027;47.420;9.310;2023-08-17T07:44:02;5.82;;;3.75;;
82387;SDS011;72027;47.420;9.310;2023-08-17T07:46:30;8.55;;;4.93;;
82387;SDS011;72027;47.420;9.310;2023-08-17T07:48:57;4.88;;;4.15;;
82387;SDS011;72027;47.420;9.310;2023-08-17T07:51:25;12.77;;;4.53;;
82387;SDS011;72027;47.420;9.310;2023-08-17T07:53:56;9.90;;;4.15;;
82387;SDS011;72027;47.420;9.310;2023-08-17T07:56:24;7.43;;;4.15;;
82387;SDS011;72027;47.420;9.310;2023-08-17T07:58:52;7.63;;;3.85;;
82387;SDS011;72027;47.420;9.310;2023-08-17T08:01:22;4.28;;;3.72;;
82387;SDS011;72027;47.420;9.310;2023-08-17T08:03:49;8.68;;;4.05;;
82387;SDS011;72027;47.420;9.310;2023-08-17T08:06:17;6.78;;;4.38;;
82387;SDS011;72027;47.420;9.310;2023-08-17T08:08:46;7.07;;;3.88;;
82387;SDS011;72027;47.420;9.310;2023-08-17T08:11:14;7.38;;;3.60;;
82387;SDS011;72027;47.420;9.310;2023-08-17T08:13:42;4.97;;;3.45;;
82387;SDS011;72027;47.420;9.310;2023-08-17T08:16:10;10.70;;;4.13;;
82387;SDS011;72027;47.420;9.310;2023-08-17T08:18:39;7.82;;;4.85;;
82387;SDS011;72027;47.420;9.310;2023-08-17T08:21:07;4.95;;;3.63;;
82387;SDS011;72027;47.420;9.310;2023-08-17T08:23:34;6.03;;;3.88;;
82387;SDS011;72027;47.420;9.310;2023-08-17T08:26:03;8.00;;;3.85;;
82387;SDS011;72027;47.420;9.310;2023-08-17T08:28:30;5.50;;;3.67;;
82387;SDS011;72027;47.420;9.310;2023-08-17T08:31:00;7.72;;;3.92;;
82387;SDS011;72027;47.420;9.310;2023-08-17T08:33:29;4.35;;;3.83;;
82387;SDS011;72027;47.420;9.310;2023-08-17T08:35:58;12.38;;;4.03;;
82387;SDS011;72027;47.420;9.310;2023-08-17T08:38:26;5.22;;;3.88;;
82387;SDS011;72027;47.420;9.310;2023-08-17T08:40:53;7.72;;;3.67;;
82387;SDS011;72027;47.420;9.310;2023-08-17T08:43:21;8.63;;;3.95;;
82387;SDS011;72027;47.420;9.310;2023-08-17T08:45:49;8.05;;;3.50;;
82387;SDS011;72027;47.420;9.310;2023-08-17T08:48:18;15.20;;;3.63;;
82387;SDS011;72027;47.420;9.310;2023-08-17T08:50:48;6.72;;;3.55;;
82387;SDS011;72027;47.420;9.310;2023-08-17T08:53:21;4.25;;;3.35;;
82387;SDS011;72027;47.420;9.310;2023-08-17T08:55:55;5.90;;;3.57;;
82387;SDS011;72027;47.420;9.310;2023-08-17T08:58:25;4.18;;;3.03;;
82387;SDS011;72027;47.420;9.310;2023-08-17T09:00:55;4.72;;;2.90;;
82387;SDS011;72027;47.420;9.310;2023-08-17T09:03:24;5.28;;;3.40;;
82387;SDS011;72027;47.420;9.310;2023-08-17T09:05:53;9.40;;;3.03;;
82387;SDS011;72027;47.420;9.310;2023-08-17T09:08:27;8.90;;;3.53;;
82387;SDS011;72027;47.420;9.310;2023-08-17T09:10:56;9.05;;;3.30;;
82387;SDS011;72027;47.420;9.310;2023-08-17T09:13:24;8.02;;;3.55;;
82387;SDS011;72027;47.420;9.310;2023-08-17T09:15:52;7.30;;;3.33;;
82387;SDS011;72027;47.420;9.310;2023-08-17T09:18:20;9.80;;;3.80;;
82387;SDS011;72027;47.420;9.310;2023-08-17T09:20:48;8.48;;;3.97;;
82387;SDS011;72027;47.420;9.310;2023-08-17T09:23:20;6.70;;;3.35;;
82387;SDS011;72027;47.420;9.310;2023-08-17T09:25:50;8.25;;;3.30;;
82387;SDS011;72027;47.420;9.310;2023-08-17T09:28:24;6.05;;;3.15;;
82387;SDS011;72027;47.420;9.310;2023-08-17T09:30:52;12.50;;;3.75;;
82387;SDS011;72027;47.420;9.310;2023-08-17T09:33:21;6.28;;;3.10;;
82387;SDS011;72027;47.420;9.310;2023-08-17T09:35:50;5.80;;;3.15;;
82387;SDS011;72027;47.420;9.310;2023-08-17T09:38:23;6.95;;;3.70;;
82387;SDS011;72027;47.420;9.310;2023-08-17T09:40:53;3.75;;;3.22;;
82387;SDS011;72027;47.420;9.310;2023-08-17T09:43:22;6.13;;;3.38;;
82387;SDS011;72027;47.420;9.310;2023-08-17T09:45:50;6.35;;;4.05;;
82387;SDS011;72027;47.420;9.310;2023-08-17T09:48:18;5.93;;;4.07;;
82387;SDS011;72027;47.420;9.310;2023-08-17T09:50:47;5.55;;;4.18;;
82387;SDS011;72027;47.420;9.310;2023-08-17T09:53:16;8.55;;;3.88;;
82387;SDS011;72027;47.420;9.310;2023-08-17T09:55:44;6.30;;;3.97;;
82387;SDS011;72027;47.420;9.310;2023-08-17T09:58:14;7.18;;;3.92;;
82387;SDS011;72027;47.420;9.310;2023-08-17T10:00:42;6.38;;;3.80;;
82387;SDS011;72027;47.420;9.310;2023-08-17T10:03:16;9.65;;;3.72;;
82387;SDS011;72027;47.420;9.310;2023-08-17T10:05:47;9.63;;;4.63;;
82387;SDS011;72027;47.420;9.310;2023-08-17T10:08:21;5.43;;;4.18;;
82387;SDS011;72027;47.420;9.310;2023-08-17T10:10:50;9.20;;;5.93;;
82387;SDS011;72027;47.420;9.310;2023-08-17T10:13:24;8.93;;;6.20;;
82387;SDS011;72027;47.420;9.310;2023-08-17T10:16:01;11.55;;;7.00;;
82387;SDS011;72027;47.420;9.310;2023-08-17T10:18:35;9.70;;;5.30;;
82387;SDS011;72027;47.420;9.310;2023-08-17T10:21:06;7.00;;;5.13;;
82387;SDS011;72027;47.420;9.310;2023-08-17T10:23:37;9.75;;;5.32;;
82387;SDS011;72027;47.420;9.310;2023-08-17T10:26:08;11.82;;;5.55;;
82387;SDS011;72027;47.420;9.310;2023-08-17T10:28:38;7.65;;;5.03;;
82387;SDS011;72027;47.420;9.310;2023-08-17T10:31:07;6.35;;;5.05;;
82387;SDS011;72027;47.420;9.310;2023-08-17T10:33:37;8.32;;;5.03;;
82387;SDS011;72027;47.420;9.310;2023-08-17T10:36:07;8.27;;;5.38;;
82387;SDS011;72027;47.420;9.310;2023-08-17T10:38:36;9.02;;;6.45;;
82387;SDS011;72027;47.420;9.310;2023-08-17T10:41:07;9.02;;;4.90;;
82387;SDS011;72027;47.420;9.310;2023-08-17T10:46:31;7.40;;;3.60;;
82387;SDS011;72027;47.420;9.310;2023-08-17T10:49:00;5.25;;;3.72;;
82387;SDS011;72027;47.420;9.310;2023-08-17T10:51:31;5.22;;;3.72;;
82387;SDS011;72027;47.420;9.310;2023-08-17T10:54:01;8.38;;;4.22;;
82387;SDS011;72027;47.420;9.310;2023-08-17T10:56:30;5.38;;;3.40;;
82387;SDS011;72027;47.420;9.310;2023-08-17T10:59:02;10.18;;;3.15;;
82387;SDS011;72027;47.420;9.310;2023-08-17T11:01:51;5.32;;;3.70;;
82387;SDS011;72027;47.420;9.310;2023-08-17T11:04:19;5.28;;;3.78;;
82387;SDS011;72027;47.420;9.310;2023-08-17T11:06:55;5.57;;;3.60;;
82387;SDS011;72027;47.420;9.310;2023-08-17T11:09:28;8.52;;;4.45;;
82387;SDS011;72027;47.420;9.310;2023-08-17T11:11:57;4.90;;;3.50;;
82387;SDS011;72027;47.420;9.310;2023-08-17T11:14:33;4.90;;;3.42;;
82387;SDS011;72027;47.420;9.310;2023-08-17T11:17:02;5.55;;;4.20;;
82387;SDS011;72027;47.420;9.310;2023-08-17T11:19:31;4.40;;;3.28;;
82387;SDS011;72027;47.420;9.310;2023-08-17T11:22:00;3.78;;;3.30;;
82387;SDS011;72027;47.420;9.310;2023-08-17T11:24:28;4.75;;;3.75;;
82387;SDS011;72027;47.420;9.310;2023-08-17T11:26:56;5.18;;;3.70;;
82387;SDS011;72027;47.420;9.310;2023-08-17T11:29:24;4.00;;;2.95;;
82387;SDS011;72027;47.420;9.310;2023-08-17T11:31:54;5.05;;;3.80;;
82387;SDS011;72027;47.420;9.310;2023-08-17T11:34:22;4.30;;;3.45;;
82387;SDS011;72027;47.420;9.310;2023-08-17T11:36:50;3.25;;;2.67;;
82387;SDS011;72027;47.420;9.310;2023-08-17T11:39:18;5.82;;;3.25;;
82387;SDS011;72027;47.420;9.310;2023-08-17T11:41:47;4.90;;;3.30;;
82387;SDS011;72027;47.420;9.310;2023-08-17T11:44:18;5.20;;;3.70;;
82387;SDS011;72027;47.420;9.310;2023-08-17T11:46:49;6.00;;;3.45;;
82387;SDS011;72027;47.420;9.310;2023-08-17T11:49:18;4.55;;;3.95;;
82387;SDS011;72027;47.420;9.310;2023-08-17T11:51:46;4.32;;;3.92;;
82387;SDS011;72027;47.420;9.310;2023-08-17T11:54:14;6.05;;;4.13;;
82387;SDS011;72027;47.420;9.310;2023-08-17T11:56:42;4.75;;;3.90;;
82387;SDS011;72027;47.420;9.310;2023-08-17T11:59:10;5.80;;;4.22;;
82387;SDS011;72027;47.420;9.310;2023-08-17T12:01:40;6.68;;;4.20;;
82387;SDS011;72027;47.420;9.310;2023-08-17T12:04:08;5.32;;;4.68;;
82387;SDS011;72027;47.420;9.310;2023-08-17T12:06:37;10.70;;;4.05;;
82387;SDS011;72027;47.420;9.310;2023-08-17T12:09:10;4.70;;;4.15;;
82387;SDS011;72027;47.420;9.310;2023-08-17T12:11:40;9.48;;;4.20;;
82387;SDS011;72027;47.420;9.310;2023-08-17T12:14:08;9.57;;;3.80;;
82387;SDS011;72027;47.420;9.310;2023-08-17T12:16:44;5.13;;;4.00;;
82387;SDS011;72027;47.420;9.310;2023-08-17T12:19:13;6.03;;;3.72;;
82387;SDS011;72027;47.420;9.310;2023-08-17T12:21:42;5.72;;;3.80;;
82387;SDS011;72027;47.420;9.310;2023-08-17T12:24:10;6.65;;;3.92;;
82387;SDS011;72027;47.420;9.310;2023-08-17T12:26:41;5.40;;;3.83;;
82387;SDS011;72027;47.420;9.310;2023-08-17T12:29:09;8.13;;;4.20;;
82387;SDS011;72027;47.420;9.310;2023-08-17T12:31:37;4.60;;;3.47;;
82387;SDS011;72027;47.420;9.310;2023-08-17T12:34:05;5.45;;;3.70;;
82387;SDS011;72027;47.420;9.310;2023-08-17T12:36:33;6.57;;;4.28;;
82387;SDS011;72027;47.420;9.310;2023-08-17T12:39:05;6.65;;;4.07;;
82387;SDS011;72027;47.420;9.310;2023-08-17T12:41:33;5.55;;;3.53;;
82387;SDS011;72027;47.420;9.310;2023-08-17T12:44:01;12.07;;;3.88;;
82387;SDS011;72027;47.420;9.310;2023-08-17T12:46:29;9.43;;;4.93;;
82387;SDS011;72027;47.420;9.310;2023-08-17T12:48:59;6.57;;;4.72;;
82387;SDS011;72027;47.420;9.310;2023-08-17T12:51:27;7.13;;;4.38;;
82387;SDS011;72027;47.420;9.310;2023-08-17T12:53:54;11.10;;;5.40;;
82387;SDS011;72027;47.420;9.310;2023-08-17T12:56:24;4.32;;;3.92;;
82387;SDS011;72027;47.420;9.310;2023-08-17T12:58:52;5.22;;;3.70;;
82387;SDS011;72027;47.420;9.310;2023-08-17T13:01:19;6.70;;;4.35;;
82387;SDS011;72027;47.420;9.310;2023-08-17T13:03:48;6.10;;;4.28;;
82387;SDS011;72027;47.420;9.310;2023-08-17T13:06:17;6.07;;;5.00;;
82387;SDS011;72027;47.420;9.310;2023-08-17T13:08:44;9.50;;;4.90;;
82387;SDS011;72027;47.420;9.310;2023-08-17T13:11:12;7.63;;;4.60;;
82387;SDS011;72027;47.420;9.310;2023-08-17T13:13:41;8.23;;;4.53;;
82387;SDS011;72027;47.420;9.310;2023-08-17T13:16:09;9.75;;;5.05;;
82387;SDS011;72027;47.420;9.310;2023-08-17T13:18:38;8.80;;;4.80;;
82387;SDS011;72027;47.420;9.310;2023-08-17T13:21:06;6.30;;;4.88;;
82387;SDS011;72027;47.420;9.310;2023-08-17T13:23:35;8.70;;;5.20;;
82387;SDS011;72027;47.420;9.310;2023-08-17T13:26:03;9.40;;;5.18;;
82387;SDS011;72027;47.420;9.310;2023-08-17T13:28:31;6.35;;;4.68;;
82387;SDS011;72027;47.420;9.310;2023-08-17T13:31:00;6.53;;;5.10;;
82387;SDS011;72027;47.420;9.310;2023-08-17T13:33:47;8.10;;;5.30;;
82387;SDS011;72027;47.420;9.310;2023-08-17T13:36:15;12.75;;;5.57;;
82387;SDS011;72027;47.420;9.310;2023-08-17T13:38:44;8.07;;;5.00;;
82387;SDS011;72027;47.420;9.310;2023-08-17T13:41:12;11.52;;;5.15;;
82387;SDS011;72027;47.420;9.310;2023-08-17T13:43:41;5.25;;;4.72;;
82387;SDS011;72027;47.420;9.310;2023-08-17T13:46:11;8.07;;;4.43;;
82387;SDS011;72027;47.420;9.310;2023-08-17T13:48:40;7.35;;;5.10;;
82387;SDS011;72027;47.420;9.310;2023-08-17T13:51:08;8.50;;;4.88;;
82387;SDS011;72027;47.420;9.310;2023-08-17T13:53:38;5.50;;;4.50;;
82387;SDS011;72027;47.420;9.310;2023-08-17T13:56:10;7.47;;;4.82;;
82387;SDS011;72027;47.420;9.310;2023-08-17T13:58:38;8.07;;;5.18;;
82387;SDS011;72027;47.420;9.310;2023-08-17T14:01:06;8.38;;;5.38;;
82387;SDS011;72027;47.420;9.310;2023-08-17T14:03:36;9.60;;;5.28;;
82387;SDS011;72027;47.420;9.310;2023-08-17T14:06:04;7.57;;;5.40;;
82387;SDS011;72027;47.420;9.310;2023-08-17T14:08:31;11.05;;;5.80;;
82387;SDS011;72027;47.420;9.310;2023-08-17T14:10:59;7.70;;;5.18;;
82387;SDS011;72027;47.420;9.310;2023-08-17T14:13:27;6.60;;;5.47;;
82387;SDS011;72027;47.420;9.310;2023-08-17T14:15:56;9.52;;;5.32;;
82387;SDS011;72027;47.420;9.310;2023-08-17T14:18:25;6.50;;;4.50;;
82387;SDS011;72027;47.420;9.310;2023-08-17T14:20:54;8.77;;;5.65;;
82387;SDS011;72027;47.420;9.310;2023-08-17T14:23:22;13.82;;;7.47;;
82387;SDS011;72027;47.420;9.310;2023-08-17T14:25:50;8.07;;;5.68;;
82387;SDS011;72027;47.420;9.310;2023-08-17T14:28:18;10.15;;;5.70;;
82387;SDS011;72027;47.420;9.310;2023-08-17T14:30:46;6.95;;;5.07;;
82387;SDS011;72027;47.420;9.310;2023-08-17T14:33:17;5.72;;;4.30;;
82387;SDS011;72027;47.420;9.310;2023-08-17T14:35:45;8.20;;;4.75;;
82387;SDS011;72027;47.420;9.310;2023-08-17T14:38:14;5.97;;;4.35;;
82387;SDS011;72027;47.420;9.310;2023-08-17T14:40:44;8.10;;;4.03;;
82387;SDS011;72027;47.420;9.310;2023-08-17T14:43:12;5.20;;;4.50;;
82387;SDS011;72027;47.420;9.310;2023-08-17T14:45:41;9.55;;;4.63;;
82387;SDS011;72027;47.420;9.310;2023-08-17T14:48:09;8.20;;;4.63;;
82387;SDS011;72027;47.420;9.310;2023-08-17T14:50:37;4.78;;;3.85;;
82387;SDS011;72027;47.420;9.310;2023-08-17T14:53:05;5.30;;;3.70;;
82387;SDS011;72027;47.420;9.310;2023-08-17T14:55:34;7.28;;;4.22;;
82387;SDS011;72027;47.420;9.310;2023-08-17T14:58:02;12.02;;;4.53;;
82387;SDS011;72027;47.420;9.310;2023-08-17T15:00:31;9.32;;;3.70;;